sensor_id;sensor_type;location;lat;lon;timestamp;pressure;altitude;pressure_sealevel;temperature;humidity
70217;BME280;65567;55.684;37.570;2023-06-24T00:02:06;98504.59;;;20.81;62.54
70217;BME280;65567;55.684;37.570;2023-06-24T00:04:32;98513.75;;;20.78;62.63
70217;BME280;65567;55.684;37.570;2023-06-24T00:06:59;98500.91;;;20.74;62.74
70217;BME280;65567;55.684;37.570;2023-06-24T00:09:28;98503.09;;;20.78;62.90
70217;BME280;65567;55.684;37.570;2023-06-24T00:11:56;98505.94;;;20.85;62.76
70217;BME280;65567;55.684;37.570;2023-06-24T00:14:22;98513.41;;;20.90;62.73
70217;BME280;65567;55.684;37.570;2023-06-24T00:16:52;98506.28;;;20.99;62.37
70217;BME280;65567;55.684;37.570;2023-06-24T00:19:25;98501.97;;;20.98;62.39
70217;BME280;65567;55.684;37.570;2023-06-24T00:21:52;98506.81;;;21.02;62.36
70217;BME280;65567;55.684;37.570;2023-06-24T00:24:19;98500.31;;;21.05;62.18
70217;BME280;65567;55.684;37.570;2023-06-24T00:26:47;98500.00;;;21.08;62.17
70217;BME280;65567;55.684;37.570;2023-06-24T00:29:13;98504.50;;;21.07;61.95
70217;BME280;65567;55.684;37.570;2023-06-24T00:31:40;98501.50;;;21.02;62.01
70217;BME280;65567;55.684;37.570;2023-06-24T00:34:06;98498.66;;;20.95;62.18
70217;BME280;65567;55.684;37.570;2023-06-24T00:36:32;98491.13;;;20.91;62.17
70217;BME280;65567;55.684;37.570;2023-06-24T00:38:58;98486.97;;;20.88;62.29
70217;BME280;65567;55.684;37.570;2023-06-24T00:41:35;98490.59;;;20.79;62.46
70217;BME280;65567;55.684;37.570;2023-06-24T00:44:01;98490.25;;;20.74;62.63
70217;BME280;65567;55.684;37.570;2023-06-24T00:46:28;98494.06;;;20.71;62.65
70217;BME280;65567;55.684;37.570;2023-06-24T00:48:55;98487.84;;;20.62;62.92
70217;BME280;65567;55.684;37.570;2023-06-24T00:51:21;98488.97;;;20.52;63.26
70217;BME280;65567;55.684;37.570;2023-06-24T00:53:52;98486.16;;;20.53;63.46
70217;BME280;65567;55.684;37.570;2023-06-24T00:56:18;98469.69;;;20.50;63.23
70217;BME280;65567;55.684;37.570;2023-06-24T00:58:45;98484.00;;;20.49;63.49
70217;BME280;65567;55.684;37.570;2023-06-24T01:01:12;98478.34;;;20.52;63.45
70217;BME280;65567;55.684;37.570;2023-06-24T01:03:38;98480.19;;;20.51;63.34
70217;BME280;65567;55.684;37.570;2023-06-24T01:06:04;98486.16;;;20.53;63.36
70217;BME280;65567;55.684;37.570;2023-06-24T01:08:29;98480.84;;;20.53;63.42
70217;BME280;65567;55.684;37.570;2023-06-24T01:10:56;98482.50;;;20.54;63.42
70217;BME280;65567;55.684;37.570;2023-06-24T01:13:22;98492.69;;;20.59;63.56
70217;BME280;65567;55.684;37.570;2023-06-24T01:15:48;98485.69;;;20.66;63.27
70217;BME280;65567;55.684;37.570;2023-06-24T01:18:21;98488.00;;;20.61;63.38
70217;BME280;65567;55.684;37.570;2023-06-24T01:21:03;98493.03;;;20.64;63.37
70217;BME280;65567;55.684;37.570;2023-06-24T01:23:52;98495.38;;;20.67;63.37
70217;BME280;65567;55.684;37.570;2023-06-24T01:32:33;98491.78;;;20.85;62.55
70217;BME280;65567;55.684;37.570;2023-06-24T01:35:09;98490.13;;;20.84;62.99
70217;BME280;65567;55.684;37.570;2023-06-24T01:37:52;98484.47;;;20.95;62.36
70217;BME280;65567;55.684;37.570;2023-06-24T01:40:26;98490.84;;;21.02;61.78
70217;BME280;65567;55.684;37.570;2023-06-24T01:42:56;98493.84;;;21.07;61.45
70217;BME280;65567;55.684;37.570;2023-06-24T01:45:26;98491.66;;;21.03;61.55
70217;BME280;65567;55.684;37.570;2023-06-24T01:48:15;98487.69;;;21.07;61.14
70217;BME280;65567;55.684;37.570;2023-06-24T01:50:55;98494.19;;;21.04;61.10
70217;BME280;65567;55.684;37.570;2023-06-24T01:53:22;98498.00;;;21.10;60.37
70217;BME280;65567;55.684;37.570;2023-06-24T01:55:50;98499.84;;;21.09;60.20
70217;BME280;65567;55.684;37.570;2023-06-24T01:58:17;98497.84;;;21.11;59.59
70217;BME280;65567;55.684;37.570;2023-06-24T02:00:45;98502.31;;;21.03;59.28
70217;BME280;65567;55.684;37.570;2023-06-24T02:03:11;98502.47;;;20.93;58.77
70217;BME280;65567;55.684;37.570;2023-06-24T02:05:38;98512.22;;;20.76;58.92
70217;BME280;65567;55.684;37.570;2023-06-24T02:08:08;98503.56;;;20.74;58.84
70217;BME280;65567;55.684;37.570;2023-06-24T02:10:37;98501.25;;;20.71;58.66
70217;BME280;65567;55.684;37.570;2023-06-24T02:13:04;98502.31;;;20.60;58.72
70217;BME280;65567;55.684;37.570;2023-06-24T02:15:31;98505.97;;;20.59;58.68
70217;BME280;65567;55.684;37.570;2023-06-24T02:17:59;98504.50;;;20.64;58.33
70217;BME280;65567;55.684;37.570;2023-06-24T02:20:28;98512.28;;;20.58;58.35
70217;BME280;65567;55.684;37.570;2023-06-24T02:22:55;98495.97;;;20.53;58.38
70217;BME280;65567;55.684;37.570;2023-06-24T02:25:22;98504.47;;;20.56;58.33
70217;BME280;65567;55.684;37.570;2023-06-24T02:28:17;98513.91;;;20.51;58.42
70217;BME280;65567;55.684;37.570;2023-06-24T02:30:46;98505.97;;;20.59;58.14
70217;BME280;65567;55.684;37.570;2023-06-24T02:33:12;98511.78;;;20.62;57.88
70217;BME280;65567;55.684;37.570;2023-06-24T02:35:38;98511.03;;;20.70;57.71
70217;BME280;65567;55.684;37.570;2023-06-24T02:38:07;98514.72;;;20.77;57.42
70217;BME280;65567;55.684;37.570;2023-06-24T02:40:33;98508.75;;;20.84;57.24
70217;BME280;65567;55.684;37.570;2023-06-24T02:42:59;98511.44;;;20.92;57.07
70217;BME280;65567;55.684;37.570;2023-06-24T02:45:26;98505.13;;;20.93;56.61
70217;BME280;65567;55.684;37.570;2023-06-24T02:47:52;98515.59;;;20.94;56.50
70217;BME280;65567;55.684;37.570;2023-06-24T02:50:19;98509.59;;;20.92;56.56
70217;BME280;65567;55.684;37.570;2023-06-24T02:52:46;98512.25;;;20.92;56.39
70217;BME280;65567;55.684;37.570;2023-06-24T02:55:14;98512.47;;;20.99;56.28
70217;BME280;65567;55.684;37.570;2023-06-24T02:57:40;98511.31;;;21.02;56.17
70217;BME280;65567;55.684;37.570;2023-06-24T03:00:07;98515.78;;;20.93;56.28
70217;BME280;65567;55.684;37.570;2023-06-24T03:02:41;98515.09;;;20.91;56.58
70217;BME280;65567;55.684;37.570;2023-06-24T03:05:09;98516.78;;;21.00;55.99
70217;BME280;65567;55.684;37.570;2023-06-24T03:07:36;98515.09;;;20.91;56.37
70217;BME280;65567;55.684;37.570;2023-06-24T03:10:03;98513.41;;;20.90;56.21
70217;BME280;65567;55.684;37.570;2023-06-24T03:12:31;98518.44;;;20.93;56.18
70217;BME280;65567;55.684;37.570;2023-06-24T03:14:57;98513.28;;;20.91;56.07
70217;BME280;65567;55.684;37.570;2023-06-24T03:17:23;98513.41;;;20.90;55.92
70217;BME280;65567;55.684;37.570;2023-06-24T03:19:50;98514.94;;;20.92;55.95
70217;BME280;65567;55.684;37.570;2023-06-24T03:22:16;98511.78;;;20.97;55.86
70217;BME280;65567;55.684;37.570;2023-06-24T03:24:42;98509.47;;;20.94;55.98
70217;BME280;65567;55.684;37.570;2023-06-24T03:27:08;98507.78;;;20.93;55.97
70217;BME280;65567;55.684;37.570;2023-06-24T03:29:34;98509.28;;;20.95;56.06
70217;BME280;65567;55.684;37.570;2023-06-24T03:32:00;98515.78;;;21.01;56.05
70217;BME280;65567;55.684;37.570;2023-06-24T03:34:26;98522.28;;;20.99;55.92
70217;BME280;65567;55.684;37.570;2023-06-24T03:36:53;98522.78;;;20.94;55.87
70217;BME280;65567;55.684;37.570;2023-06-24T03:39:22;98516.25;;;20.88;56.21
70217;BME280;65567;55.684;37.570;2023-06-24T03:41:48;98518.91;;;20.80;56.42
70217;BME280;65567;55.684;37.570;2023-06-24T03:44:13;98522.38;;;20.80;56.48
70217;BME280;65567;55.684;37.570;2023-06-24T03:46:39;98523.59;;;20.86;55.93
70217;BME280;65567;55.684;37.570;2023-06-24T03:49:05;98518.44;;;20.93;55.89
70217;BME280;65567;55.684;37.570;2023-06-24T03:51:31;98517.44;;;20.94;55.88
70217;BME280;65567;55.684;37.570;2023-06-24T03:53:57;98518.28;;;20.94;55.70
70217;BME280;65567;55.684;37.570;2023-06-24T03:56:23;98521.41;;;20.90;55.81
70217;BME280;65567;55.684;37.570;2023-06-24T03:58:49;98524.59;;;20.93;55.60
70217;BME280;65567;55.684;37.570;2023-06-24T04:01:14;98521.13;;;21.01;55.44
70217;BME280;65567;55.684;37.570;2023-06-24T04:03:43;98518.97;;;20.96;55.50
70217;BME280;65567;55.684;37.570;2023-06-24T04:06:08;98523.72;;;20.85;55.58
70217;BME280;65567;55.684;37.570;2023-06-24T04:08:34;98521.38;;;20.73;55.82
70217;BME280;65567;55.684;37.570;2023-06-24T04:11:00;98516.56;;;20.77;55.64
70217;BME280;65567;55.684;37.570;2023-06-24T04:13:26;98518.72;;;20.82;55.72
70217;BME280;65567;55.684;37.570;2023-06-24T04:15:52;98529.22;;;20.83;55.81
70217;BME280;65567;55.684;37.570;2023-06-24T04:18:19;98525.72;;;20.83;55.82
70217;BME280;65567;55.684;37.570;2023-06-24T04:20:45;98531.03;;;20.74;56.10
70217;BME280;65567;55.684;37.570;2023-06-24T04:23:12;98527.97;;;20.69;56.25
70217;BME280;65567;55.684;37.570;2023-06-24T04:25:40;98534.59;;;20.65;56.57
70217;BME280;65567;55.684;37.570;2023-06-24T04:28:06;98539.63;;;20.68;56.32
70217;BME280;65567;55.684;37.570;2023-06-24T04:30:32;98541.69;;;20.74;56.15
70217;BME280;65567;55.684;37.570;2023-06-24T04:33:01;98547.81;;;20.75;56.30
70217;BME280;65567;55.684;37.570;2023-06-24T04:35:27;98544.00;;;20.77;56.29
70217;BME280;65567;55.684;37.570;2023-06-24T04:37:53;98544.00;;;20.77;55.92
70217;BME280;65567;55.684;37.570;2023-06-24T04:40:19;98546.16;;;20.74;56.21
70217;BME280;65567;55.684;37.570;2023-06-24T04:42:45;98554.31;;;20.80;56.18
70217;BME280;65567;55.684;37.570;2023-06-24T04:45:11;98557.50;;;20.84;56.05
70217;BME280;65567;55.684;37.570;2023-06-24T04:47:37;98556.69;;;20.92;55.75
70217;BME280;65567;55.684;37.570;2023-06-24T04:50:03;98562.03;;;21.00;55.51
70217;BME280;65567;55.684;37.570;2023-06-24T04:52:29;98559.72;;;21.05;55.11
70217;BME280;65567;55.684;37.570;2023-06-24T04:54:55;98556.75;;;21.08;54.79
70217;BME280;65567;55.684;37.570;2023-06-24T04:57:29;98559.38;;;21.00;54.79
70217;BME280;65567;55.684;37.570;2023-06-24T04:59:56;98565.38;;;21.02;54.78
70217;BME280;65567;55.684;37.570;2023-06-24T05:02:22;98561.75;;;21.03;54.94
70217;BME280;65567;55.684;37.570;2023-06-24T05:04:48;98574.06;;;21.04;54.78
70217;BME280;65567;55.684;37.570;2023-06-24T05:07:14;98566.03;;;20.96;54.98
70217;BME280;65567;55.684;37.570;2023-06-24T05:09:40;98570.19;;;20.90;55.17
70217;BME280;65567;55.684;37.570;2023-06-24T05:12:06;98567.00;;;20.87;55.42
70217;BME280;65567;55.684;37.570;2023-06-24T05:14:36;98566.47;;;20.83;55.25
70217;BME280;65567;55.684;37.570;2023-06-24T05:17:05;98571.41;;;20.70;55.58
70217;BME280;65567;55.684;37.570;2023-06-24T05:19:30;98572.88;;;20.64;55.81
70217;BME280;65567;55.684;37.570;2023-06-24T05:21:56;98571.63;;;20.76;55.32
70217;BME280;65567;55.684;37.570;2023-06-24T05:24:22;98570.00;;;20.92;54.85
70217;BME280;65567;55.684;37.570;2023-06-24T05:26:49;98570.72;;;21.02;54.41
70217;BME280;65567;55.684;37.570;2023-06-24T05:29:16;98568.06;;;21.10;54.14
70217;BME280;65567;55.684;37.570;2023-06-24T05:31:42;98560.59;;;21.06;54.02
70217;BME280;65567;55.684;37.570;2023-06-24T05:34:08;98566.59;;;21.16;53.89
70217;BME280;65567;55.684;37.570;2023-06-24T05:36:34;98561.47;;;21.23;53.73
70217;BME280;65567;55.684;37.570;2023-06-24T05:39:00;98555.47;;;21.29;53.47
70217;BME280;65567;55.684;37.570;2023-06-24T05:41:26;98564.16;;;21.39;53.16
70217;BME280;65567;55.684;37.570;2023-06-24T05:44:06;98565.16;;;21.38;53.27
70217;BME280;65567;55.684;37.570;2023-06-24T05:46:32;98565.78;;;21.24;53.54
70217;BME280;65567;55.684;37.570;2023-06-24T05:48:58;98565.97;;;21.31;53.22
70217;BME280;65567;55.684;37.570;2023-06-24T05:51:24;98567.44;;;21.25;53.27
70217;BME280;65567;55.684;37.570;2023-06-24T05:53:49;98569.41;;;21.15;53.79
70217;BME280;65567;55.684;37.570;2023-06-24T05:56:15;98571.75;;;21.18;53.52
70217;BME280;65567;55.684;37.570;2023-06-24T05:58:41;98573.09;;;21.22;53.67
70217;BME280;65567;55.684;37.570;2023-06-24T06:01:10;98589.59;;;21.25;53.55
70217;BME280;65567;55.684;37.570;2023-06-24T06:03:35;98578.72;;;21.10;53.93
70217;BME280;65567;55.684;37.570;2023-06-24T06:06:01;98577.72;;;21.03;53.89
70217;BME280;65567;55.684;37.570;2023-06-24T06:08:27;98585.34;;;20.98;54.24
70217;BME280;65567;55.684;37.570;2023-06-24T06:10:53;98584.38;;;21.07;54.05
70217;BME280;65567;55.684;37.570;2023-06-24T06:13:18;98589.38;;;21.10;53.95
70217;BME280;65567;55.684;37.570;2023-06-24T06:15:44;98590.75;;;21.23;53.76
70217;BME280;65567;55.684;37.570;2023-06-24T06:18:10;98594.75;;;21.27;53.44
70217;BME280;65567;55.684;37.570;2023-06-24T06:20:36;98589.78;;;21.24;53.66
70217;BME280;65567;55.684;37.570;2023-06-24T06:23:01;98594.75;;;21.27;53.41
70217;BME280;65567;55.684;37.570;2023-06-24T06:25:27;98596.09;;;21.31;53.53
70217;BME280;65567;55.684;37.570;2023-06-24T06:27:53;98602.41;;;21.22;53.71
70217;BME280;65567;55.684;37.570;2023-06-24T06:30:19;98606.06;;;21.21;53.76
70217;BME280;65567;55.684;37.570;2023-06-24T06:32:45;98602.41;;;21.22;53.84
70217;BME280;65567;55.684;37.570;2023-06-24T06:35:11;98601.38;;;21.15;54.18
70217;BME280;65567;55.684;37.570;2023-06-24T06:37:37;98598.41;;;21.18;54.15
70217;BME280;65567;55.684;37.570;2023-06-24T06:40:03;98602.59;;;21.28;54.02
70217;BME280;65567;55.684;37.570;2023-06-24T06:42:29;98600.28;;;21.34;53.69
70217;BME280;65567;55.684;37.570;2023-06-24T06:44:55;98596.09;;;21.31;53.88
70217;BME280;65567;55.684;37.570;2023-06-24T06:47:21;98601.47;;;21.39;53.73
70217;BME280;65567;55.684;37.570;2023-06-24T06:49:46;98589.78;;;21.40;53.50
70217;BME280;65567;55.684;37.570;2023-06-24T06:52:12;98599.13;;;21.44;53.52
70217;BME280;65567;55.684;37.570;2023-06-24T06:54:38;98597.13;;;21.46;53.32
70217;BME280;65567;55.684;37.570;2023-06-24T06:57:04;98602.19;;;21.58;52.98
70217;BME280;65567;55.684;37.570;2023-06-24T06:59:30;98598.84;;;21.56;53.24
70217;BME280;65567;55.684;37.570;2023-06-24T07:01:56;98602.50;;;21.55;53.12
70217;BME280;65567;55.684;37.570;2023-06-24T07:04:22;98602.81;;;21.52;53.27
70217;BME280;65567;55.684;37.570;2023-06-24T07:06:48;98602.81;;;21.52;53.13
70217;BME280;65567;55.684;37.570;2023-06-24T07:09:14;98604.00;;;21.57;53.11
70217;BME280;65567;55.684;37.570;2023-06-24T07:11:41;98599.34;;;21.59;52.91
70217;BME280;65567;55.684;37.570;2023-06-24T07:14:08;98610.53;;;21.63;52.67
70217;BME280;65567;55.684;37.570;2023-06-24T07:16:34;98604.34;;;21.62;52.87
70217;BME280;65567;55.684;37.570;2023-06-24T07:18:59;98610.19;;;21.74;52.50
70217;BME280;65567;55.684;37.570;2023-06-24T07:21:25;98610.22;;;21.83;52.21
70217;BME280;65567;55.684;37.570;2023-06-24T07:23:51;98609.88;;;21.86;52.23
70217;BME280;65567;55.684;37.570;2023-06-24T07:26:17;98614.22;;;21.95;51.96
70217;BME280;65567;55.684;37.570;2023-06-24T07:28:43;98607.03;;;21.87;51.91
70217;BME280;65567;55.684;37.570;2023-06-24T07:31:08;98613.56;;;21.93;51.48
70217;BME280;65567;55.684;37.570;2023-06-24T07:33:34;98615.56;;;21.99;51.54
70217;BME280;65567;55.684;37.570;2023-06-24T07:36:00;98622.88;;;21.97;51.73
70217;BME280;65567;55.684;37.570;2023-06-24T07:38:28;98618.03;;;21.92;51.71
70217;BME280;65567;55.684;37.570;2023-06-24T07:40:54;98606.56;;;21.84;52.21
70217;BME280;65567;55.684;37.570;2023-06-24T07:43:19;98613.22;;;21.88;52.29
70217;BME280;65567;55.684;37.570;2023-06-24T07:45:45;98620.91;;;21.99;51.97
70217;BME280;65567;55.684;37.570;2023-06-24T07:48:11;98628.53;;;22.10;51.56
70217;BME280;65567;55.684;37.570;2023-06-24T07:50:38;98634.72;;;22.11;51.77
70217;BME280;65567;55.684;37.570;2023-06-24T07:53:04;98632.53;;;22.15;51.42
70217;BME280;65567;55.684;37.570;2023-06-24T07:55:30;98638.56;;;22.17;51.38
70217;BME280;65567;55.684;37.570;2023-06-24T07:57:56;98638.56;;;22.17;51.47
70217;BME280;65567;55.684;37.570;2023-06-24T08:00:24;98640.72;;;22.21;51.41
70217;BME280;65567;55.684;37.570;2023-06-24T08:02:50;98643.06;;;22.24;51.20
70217;BME280;65567;55.684;37.570;2023-06-24T08:05:16;98647.06;;;22.20;51.21
70217;BME280;65567;55.684;37.570;2023-06-24T08:07:44;98646.22;;;22.20;51.23
70217;BME280;65567;55.684;37.570;2023-06-24T08:10:10;98651.06;;;22.24;51.03
70217;BME280;65567;55.684;37.570;2023-06-24T08:12:36;98641.53;;;22.30;51.19
70217;BME280;65567;55.684;37.570;2023-06-24T08:15:02;98650.41;;;22.31;51.19
70217;BME280;65567;55.684;37.570;2023-06-24T08:17:28;98655.56;;;22.24;51.21
70217;BME280;65567;55.684;37.570;2023-06-24T08:19:53;98652.22;;;22.22;51.43
70217;BME280;65567;55.684;37.570;2023-06-24T08:22:19;98656.22;;;22.26;51.27
70217;BME280;65567;55.684;37.570;2023-06-24T08:24:45;98661.22;;;22.21;51.32
70217;BME280;65567;55.684;37.570;2023-06-24T08:27:10;98659.22;;;22.23;50.91
70217;BME280;65567;55.684;37.570;2023-06-24T08:29:36;98656.75;;;22.21;51.26
70217;BME280;65567;55.684;37.570;2023-06-24T08:32:03;98667.41;;;22.21;51.00
70217;BME280;65567;55.684;37.570;2023-06-24T08:34:30;98663.06;;;22.20;51.37
70217;BME280;65567;55.684;37.570;2023-06-24T08:36:55;98659.91;;;22.17;51.42
70217;BME280;65567;55.684;37.570;2023-06-24T08:39:21;98669.75;;;22.16;51.50
70217;BME280;65567;55.684;37.570;2023-06-24T08:41:47;98665.72;;;22.12;51.66
70217;BME280;65567;55.684;37.570;2023-06-24T08:44:12;98671.38;;;22.17;51.53
70217;BME280;65567;55.684;37.570;2023-06-24T08:46:38;98676.25;;;22.14;51.69
70217;BME280;65567;55.684;37.570;2023-06-24T08:52:04;98674.53;;;22.04;51.77
70217;BME280;65567;55.684;37.570;2023-06-24T08:54:35;98676.91;;;21.99;52.10
70217;BME280;65567;55.684;37.570;2023-06-24T08:57:02;98675.72;;;21.93;52.23
70217;BME280;65567;55.684;37.570;2023-06-24T08:59:31;98686.03;;;21.88;52.35
70217;BME280;65567;55.684;37.570;2023-06-24T09:01:57;98686.53;;;21.84;52.63
70217;BME280;65567;55.684;37.570;2023-06-24T09:04:22;98676.34;;;21.79;52.66
70217;BME280;65567;55.684;37.570;2023-06-24T09:06:48;98692.00;;;21.74;53.16
70217;BME280;65567;55.684;37.570;2023-06-24T09:09:18;98692.84;;;21.74;53.16
70217;BME280;65567;55.684;37.570;2023-06-24T09:11:50;98697.53;;;21.81;53.04
70217;BME280;65567;55.684;37.570;2023-06-24T09:14:16;98694.03;;;21.80;52.87
70217;BME280;65567;55.684;37.570;2023-06-24T09:16:51;98695.50;;;21.74;53.04
70217;BME280;65567;55.684;37.570;2023-06-24T09:19:20;98703.66;;;21.73;53.09
70217;BME280;65567;55.684;37.570;2023-06-24T09:21:46;98697.69;;;21.71;53.25
70217;BME280;65567;55.684;37.570;2023-06-24T09:24:12;98702.47;;;21.59;53.43
70217;BME280;65567;55.684;37.570;2023-06-24T09:26:38;98711.66;;;21.65;53.33
70217;BME280;65567;55.684;37.570;2023-06-24T09:29:07;98708.81;;;21.66;53.24
70217;BME280;65567;55.684;37.570;2023-06-24T09:31:33;98709.50;;;21.68;53.39
70217;BME280;65567;55.684;37.570;2023-06-24T09:33:59;98709.84;;;21.73;53.31
70217;BME280;65567;55.684;37.570;2023-06-24T09:36:25;98718.19;;;21.78;53.37
70217;BME280;65567;55.684;37.570;2023-06-24T09:38:51;98727.53;;;21.83;53.16
70217;BME280;65567;55.684;37.570;2023-06-24T09:41:16;98726.69;;;21.82;53.08
70217;BME280;65567;55.684;37.570;2023-06-24T09:43:43;98725.81;;;21.65;53.45
70217;BME280;65567;55.684;37.570;2023-06-24T09:46:14;98734.47;;;21.59;53.67
70217;BME280;65567;55.684;37.570;2023-06-24T09:48:41;98731.13;;;21.65;53.61
70217;BME280;65567;55.684;37.570;2023-06-24T09:51:08;98743.47;;;21.66;53.47
70217;BME280;65567;55.684;37.570;2023-06-24T09:53:34;98748.09;;;21.56;53.70
70217;BME280;65567;55.684;37.570;2023-06-24T09:56:03;98750.69;;;21.48;54.14
70217;BME280;65567;55.684;37.570;2023-06-24T09:58:35;98756.34;;;21.44;54.19
70217;BME280;65567;55.684;37.570;2023-06-24T10:01:03;98769.63;;;21.36;54.40
70217;BME280;65567;55.684;37.570;2023-06-24T10:03:34;98764.28;;;21.36;54.41
70217;BME280;65567;55.684;37.570;2023-06-24T10:06:04;98765.63;;;21.32;54.58
70217;BME280;65567;55.684;37.570;2023-06-24T10:08:30;98765.09;;;21.28;54.10
70217;BME280;65567;55.684;37.570;2023-06-24T10:10:56;98773.09;;;21.28;54.11
70217;BME280;65567;55.684;37.570;2023-06-24T10:13:22;98767.59;;;21.30;54.27
70217;BME280;65567;55.684;37.570;2023-06-24T10:15:48;98769.31;;;21.39;53.78
70217;BME280;65567;55.684;37.570;2023-06-24T10:18:37;98770.19;;;21.48;53.77
70217;BME280;65567;55.684;37.570;2023-06-24T10:21:04;98781.63;;;21.40;53.82
70217;BME280;65567;55.684;37.570;2023-06-24T10:23:39;98773.41;;;21.25;54.43
70217;BME280;65567;55.684;37.570;2023-06-24T10:26:25;98780.50;;;21.17;54.52
70217;BME280;65567;55.684;37.570;2023-06-24T10:34:34;98770.00;;;21.50;53.72
70217;BME280;65567;55.684;37.570;2023-06-24T10:39:49;98782.09;;;21.62;53.47
70217;BME280;65567;55.684;37.570;2023-06-24T10:44:59;98789.06;;;21.55;53.42
70217;BME280;65567;55.684;37.570;2023-06-24T10:47:27;98784.84;;;21.52;53.50
70217;BME280;65567;55.684;37.570;2023-06-24T10:49:53;98785.00;;;21.42;53.73
70217;BME280;65567;55.684;37.570;2023-06-24T10:52:20;98787.69;;;21.51;53.79
70217;BME280;65567;55.684;37.570;2023-06-24T10:54:47;98788.13;;;21.64;53.46
70217;BME280;65567;55.684;37.570;2023-06-24T10:57:12;98790.19;;;21.78;53.18
70217;BME280;65567;55.684;37.570;2023-06-24T10:59:47;98797.56;;;21.93;53.06
70217;BME280;65567;55.684;37.570;2023-06-24T11:02:18;98792.06;;;22.03;52.56
70217;BME280;65567;55.684;37.570;2023-06-24T11:04:45;98800.59;;;22.15;52.26
70217;BME280;65567;55.684;37.570;2023-06-24T11:07:11;98793.63;;;22.22;51.86
70217;BME280;65567;55.684;37.570;2023-06-24T11:09:38;98799.59;;;22.16;51.94
70217;BME280;65567;55.684;37.570;2023-06-24T11:12:04;98796.63;;;22.19;52.01
70217;BME280;65567;55.684;37.570;2023-06-24T11:14:30;98800.31;;;22.26;51.94
70217;BME280;65567;55.684;37.570;2023-06-24T11:16:55;98802.97;;;22.26;52.12
70217;BME280;65567;55.684;37.570;2023-06-24T11:19:21;98800.97;;;22.28;51.88
70217;BME280;65567;55.684;37.570;2023-06-24T11:21:47;98807.66;;;22.32;51.51
70217;BME280;65567;55.684;37.570;2023-06-24T11:24:12;98803.47;;;22.21;51.27
70217;BME280;65567;55.684;37.570;2023-06-24T11:26:38;98811.50;;;21.78;52.10
70217;BME280;65567;55.684;37.570;2023-06-24T11:29:10;98806.78;;;21.64;52.65
70217;BME280;65567;55.684;37.570;2023-06-24T11:31:36;98810.81;;;21.76;52.31
70217;BME280;65567;55.684;37.570;2023-06-24T11:34:03;98816.97;;;21.77;52.50
70217;BME280;65567;55.684;37.570;2023-06-24T11:36:29;98813.88;;;21.90;52.06
70217;BME280;65567;55.684;37.570;2023-06-24T11:38:58;98822.91;;;22.05;51.51
70217;BME280;65567;55.684;37.570;2023-06-24T11:41:24;98820.28;;;22.14;51.41
70217;BME280;65567;55.684;37.570;2023-06-24T11:43:51;98818.72;;;22.37;50.79
70217;BME280;65567;55.684;37.570;2023-06-24T11:46:30;98822.56;;;22.51;50.44
70217;BME280;65567;55.684;37.570;2023-06-24T11:49:08;98827.41;;;22.48;50.65
70217;BME280;65567;55.684;37.570;2023-06-24T11:51:35;98825.59;;;22.56;50.64
70217;BME280;65567;55.684;37.570;2023-06-24T11:54:02;98831.09;;;22.80;50.17
70217;BME280;65567;55.684;37.570;2023-06-24T11:56:36;98833.59;;;22.81;49.82
70217;BME280;65567;55.684;37.570;2023-06-24T11:59:22;98832.31;;;22.34;50.02
70217;BME280;65567;55.684;37.570;2023-06-24T12:01:56;98821.03;;;21.81;51.62
70217;BME280;65567;55.684;37.570;2023-06-24T12:04:30;98834.72;;;21.60;52.28
70217;BME280;65567;55.684;37.570;2023-06-24T12:06:56;98842.34;;;21.81;52.14
70217;BME280;65567;55.684;37.570;2023-06-24T12:09:22;98825.41;;;22.07;51.04
70217;BME280;65567;55.684;37.570;2023-06-24T12:11:48;98834.28;;;22.16;51.03
70217;BME280;65567;55.684;37.570;2023-06-24T12:14:14;98835.00;;;22.34;50.49
70217;BME280;65567;55.684;37.570;2023-06-24T12:16:40;98831.56;;;22.50;49.56
70217;BME280;65567;55.684;37.570;2023-06-24T12:19:06;98840.66;;;22.31;49.73
70217;BME280;65567;55.684;37.570;2023-06-24T12:21:33;98827.28;;;22.15;49.71
70217;BME280;65567;55.684;37.570;2023-06-24T12:23:59;98839.25;;;22.02;49.64
70217;BME280;65567;55.684;37.570;2023-06-24T12:26:24;98839.25;;;21.94;49.65
70217;BME280;65567;55.684;37.570;2023-06-24T12:28:50;98843.56;;;21.95;49.69
70217;BME280;65567;55.684;37.570;2023-06-24T12:31:16;98839.44;;;22.09;48.80
70217;BME280;65567;55.684;37.570;2023-06-24T12:33:41;98843.97;;;22.08;48.95
70217;BME280;65567;55.684;37.570;2023-06-24T12:36:07;98839.91;;;21.96;49.54
70217;BME280;65567;55.684;37.570;2023-06-24T12:38:33;98840.41;;;22.00;49.61
70217;BME280;65567;55.684;37.570;2023-06-24T12:40:58;98850.63;;;22.13;49.39
70217;BME280;65567;55.684;37.570;2023-06-24T12:43:24;98850.25;;;21.99;49.93
70217;BME280;65567;55.684;37.570;2023-06-24T12:45:50;98856.59;;;21.98;50.43
70217;BME280;65567;55.684;37.570;2023-06-24T12:48:16;98854.69;;;21.56;51.73
70217;BME280;65567;55.684;37.570;2023-06-24T12:50:42;98856.97;;;21.24;52.94
70217;BME280;65567;55.684;37.570;2023-06-24T12:53:08;98858.38;;;21.10;53.36
70217;BME280;65567;55.684;37.570;2023-06-24T12:55:39;98860.56;;;21.15;53.55
70217;BME280;65567;55.684;37.570;2023-06-24T12:58:05;98864.34;;;21.04;53.72
70217;BME280;65567;55.684;37.570;2023-06-24T13:00:30;98866.34;;;21.10;53.33
70217;BME280;65567;55.684;37.570;2023-06-24T13:02:56;98864.56;;;20.93;53.84
70217;BME280;65567;55.684;37.570;2023-06-24T13:05:22;98865.22;;;21.13;53.55
70217;BME280;65567;55.684;37.570;2023-06-24T13:07:47;98864.03;;;21.34;52.89
70217;BME280;65567;55.684;37.570;2023-06-24T13:10:13;98869.00;;;21.55;52.20
70217;BME280;65567;55.684;37.570;2023-06-24T13:12:39;98874.06;;;21.58;51.98